Gamlingay, United Kingdom
Current Conditions -  °F | °C
As of 9:20 AM on Friday 31 Oct 2014 (Local Time) from EGSC Reporting Station
Clear Clear  
Wind Chill: 17°   Ceiling: Unl
Heat Index: 17°   Visibility: 5mi
Dew Point: 14°   Wind: 10mph
Humidity: 82%   Direction: 170°S
Pressure: 30.03"   Gusts: NA
Location:  52.16°N, 0.19°W
Report Text: EGSC 310920Z 17009KT 8000 NSC 17/14 Q1017
Loading
Personal Weather Stations






























Interactive Weather Map
Tropical Storm Tracking
New forecast layout! Learn more

10-Day Weather Forecast

Advertisements
Track Severe Weather on mobile